createdAt,value
2022-08-04T00:01:29.124Z,18.23
2022-08-04T00:04:04.074Z,21.42
2022-08-04T00:06:48.605Z,26.00
2022-08-04T00:09:41.286Z,22.35
2022-08-04T00:12:16.090Z,19.15
2022-08-04T00:14:50.294Z,19.27
2022-08-04T00:17:21.867Z,20.70
2022-08-04T00:19:55.909Z,20.42
2022-08-04T00:22:30.659Z,26.40
2022-08-04T00:25:02.765Z,18.95
2022-08-04T00:27:32.264Z,22.58
2022-08-04T00:30:06.663Z,28.83
2022-08-04T00:32:35.553Z,21.13
2022-08-04T00:35:04.684Z,22.65
2022-08-04T00:37:33.463Z,26.17
2022-08-04T00:40:09.551Z,29.55
2022-08-04T00:42:59.239Z,21.38
2022-08-04T00:46:14.926Z,18.58
2022-08-04T00:49:14.254Z,25.00
2022-08-04T00:52:32.223Z,27.63
2022-08-04T00:54:45.822Z,21.55
2022-08-04T00:57:39.692Z,30.80
2022-08-04T01:00:14.351Z,31.80
2022-08-04T01:03:14.340Z,28.65
2022-08-04T01:06:13.274Z,25.25
2022-08-04T01:08:50.764Z,33.85
2022-08-04T01:11:57.460Z,25.00
2022-08-04T01:14:32.306Z,25.35
2022-08-04T01:17:19.958Z,31.92
2022-08-04T01:20:08.609Z,25.40
2022-08-04T01:23:01.882Z,23.58
2022-08-04T01:26:42.412Z,26.77
2022-08-04T01:29:09.753Z,21.92
2022-08-04T01:31:59.964Z,27.67
2022-08-04T01:34:34.587Z,36.22
2022-08-04T01:37:07.896Z,27.05
2022-08-04T01:39:42.972Z,20.95
2022-08-04T01:42:12.554Z,22.73
2022-08-04T01:44:41.967Z,24.98
2022-08-04T01:47:10.308Z,26.50
2022-08-04T01:49:40.583Z,28.52
2022-08-04T01:52:10.510Z,25.35
2022-08-04T01:54:41.814Z,29.38
2022-08-04T01:57:38.153Z,31.65
2022-08-04T02:00:02.462Z,32.03
2022-08-04T02:02:35.432Z,29.65
2022-08-04T02:05:04.001Z,23.48
2022-08-04T02:07:57.991Z,28.38
2022-08-04T02:10:35.723Z,24.48
2022-08-04T02:13:19.245Z,22.17
2022-08-04T02:15:47.569Z,22.27
2022-08-04T02:18:24.382Z,24.27
2022-08-04T02:21:03.901Z,22.38
2022-08-04T02:23:43.184Z,25.50
2022-08-04T02:26:22.002Z,23.95
2022-08-04T02:29:09.891Z,25.67
2022-08-04T02:31:47.539Z,19.60
2022-08-04T02:34:34.502Z,27.10
2022-08-04T02:37:04.727Z,27.50
2022-08-04T02:39:47.909Z,26.30
2022-08-04T02:42:18.906Z,27.90
2022-08-04T02:44:50.984Z,28.02
2022-08-04T02:47:22.332Z,26.63
2022-08-04T02:49:51.883Z,30.27
2022-08-04T02:52:21.789Z,31.13
2022-08-04T02:54:54.246Z,30.70
2022-08-04T02:57:29.907Z,23.63
2022-08-04T03:00:14.320Z,23.02
2022-08-04T03:03:20.150Z,27.45
2022-08-04T03:06:01.279Z,24.98
2022-08-04T03:08:57.428Z,24.23
2022-08-04T03:11:51.295Z,24.63
2022-08-04T03:14:19.545Z,28.83
2022-08-04T03:16:47.760Z,24.45
2022-08-04T03:19:47.035Z,26.63
2022-08-04T03:22:33.478Z,23.42
2022-08-04T03:25:13.856Z,25.40
2022-08-04T03:27:57.642Z,24.70
2022-08-04T03:31:03.703Z,26.15
2022-08-04T03:34:01.837Z,30.45
2022-08-04T03:36:55.995Z,23.98
2022-08-04T03:39:42.613Z,30.60
2022-08-04T03:42:20.114Z,25.02
2022-08-04T03:45:04.443Z,20.45
2022-08-04T03:48:29.026Z,27.88
2022-08-04T03:51:56.650Z,24.25
2022-08-04T03:55:00.547Z,21.00
2022-08-04T03:57:34.570Z,28.73
2022-08-04T04:00:13.150Z,25.35
2022-08-04T04:03:28.724Z,23.08
2022-08-04T04:06:43.390Z,24.98
2022-08-04T04:09:32.090Z,26.08
2022-08-04T04:12:25.427Z,24.35
2022-08-04T04:15:08.975Z,24.52
2022-08-04T04:18:04.901Z,27.65
2022-08-04T04:21:06.972Z,28.40
2022-08-04T04:23:44.456Z,22.65
2022-08-04T04:26:23.887Z,19.80
2022-08-04T04:29:03.524Z,21.42
2022-08-04T04:31:44.192Z,20.25
2022-08-04T04:34:36.061Z,22.35
2022-08-04T04:37:22.366Z,20.65
2022-08-04T04:40:04.006Z,21.23
2022-08-04T04:42:52.635Z,26.75
2022-08-04T04:45:52.258Z,19.08
2022-08-04T04:48:39.126Z,18.15
2022-08-04T04:51:16.641Z,19.80
2022-08-04T04:54:00.150Z,19.45
2022-08-04T04:56:35.485Z,18.83
2022-08-04T04:59:09.416Z,16.40
2022-08-04T05:01:59.771Z,24.58
2022-08-04T05:04:52.775Z,19.50
2022-08-04T05:07:36.350Z,14.27
2022-08-04T05:10:22.650Z,15.65
2022-08-04T05:14:34.835Z,22.35
2022-08-04T05:16:00.213Z,24.80
2022-08-04T05:18:32.871Z,20.70
2022-08-04T05:21:34.374Z,19.60
2022-08-04T05:24:08.125Z,33.75
2022-08-04T05:26:46.136Z,15.60
2022-08-04T05:29:26.125Z,22.88
2022-08-04T05:32:06.210Z,18.92
2022-08-04T05:34:41.158Z,16.67
2022-08-04T05:37:15.929Z,16.63
2022-08-04T05:40:05.414Z,16.73
2022-08-04T05:42:38.313Z,16.88
2022-08-04T05:45:08.557Z,17.88
2022-08-04T05:50:08.135Z,22.13
2022-08-04T05:52:38.690Z,19.60
2022-08-04T05:55:08.321Z,19.42
2022-08-04T05:57:42.773Z,20.23
2022-08-04T06:00:39.099Z,18.83
2022-08-04T06:03:04.599Z,25.73
2022-08-04T06:05:33.070Z,15.07
2022-08-04T06:08:11.838Z,19.45
2022-08-04T06:13:46.774Z,15.25
2022-08-04T06:16:06.540Z,17.90
2022-08-04T06:19:58.986Z,14.80
2022-08-04T06:21:28.564Z,15.32
2022-08-04T06:24:04.319Z,18.88
2022-08-04T06:26:36.059Z,17.48
2022-08-04T06:29:05.574Z,20.42
2022-08-04T06:32:30.487Z,18.10
2022-08-04T06:34:35.884Z,21.70
2022-08-04T06:37:05.594Z,22.42
2022-08-04T06:39:35.552Z,20.60
2022-08-04T06:42:21.985Z,13.95
2022-08-04T06:44:59.539Z,18.45
2022-08-04T06:47:30.698Z,17.73
2022-08-04T06:51:32.531Z,15.07
2022-08-04T06:52:49.171Z,20.45
2022-08-04T06:55:17.730Z,13.13
2022-08-04T06:57:46.749Z,16.70
2022-08-04T07:00:17.702Z,16.85
2022-08-04T07:02:51.477Z,15.65
2022-08-04T07:05:21.135Z,11.32
2022-08-04T07:07:58.239Z,16.40
2022-08-04T07:10:30.935Z,17.40
2022-08-04T07:13:01.972Z,14.00
2022-08-04T07:15:31.547Z,13.02
2022-08-04T07:18:05.182Z,12.73
2022-08-04T07:20:36.591Z,14.50
2022-08-04T07:23:06.677Z,10.77
2022-08-04T07:26:00.954Z,12.23
2022-08-04T07:28:30.120Z,10.02
2022-08-04T07:31:02.386Z,11.35
2022-08-04T07:33:31.307Z,9.88
2022-08-04T07:36:05.297Z,12.13
2022-08-04T07:38:49.745Z,10.27
2022-08-04T07:44:06.468Z,10.57
2022-08-04T07:46:36.805Z,11.27
2022-08-04T07:51:35.925Z,9.20
2022-08-04T07:54:05.995Z,7.40
2022-08-04T07:56:39.647Z,11.15
2022-08-04T07:59:08.364Z,9.13
2022-08-04T08:01:38.281Z,9.38
2022-08-04T08:04:08.548Z,10.57
2022-08-04T08:06:43.128Z,11.20
2022-08-04T08:09:17.189Z,8.52
2022-08-04T08:12:38.441Z,10.07
2022-08-04T08:14:36.898Z,7.95
2022-08-04T08:17:05.417Z,7.85
2022-08-04T08:19:35.744Z,11.32
2022-08-04T08:22:05.601Z,11.65
2022-08-04T08:24:38.079Z,11.23
2022-08-04T08:27:07.042Z,9.00
2022-08-04T08:29:36.116Z,8.88
2022-08-04T08:32:13.146Z,12.40
2022-08-04T08:34:42.732Z,10.30
2022-08-04T08:37:29.234Z,7.22
2022-08-04T08:40:40.264Z,7.63
2022-08-04T08:44:04.929Z,12.32
2022-08-04T08:46:48.830Z,10.43
2022-08-04T08:50:02.790Z,11.43
2022-08-04T08:53:01.061Z,5.43
2022-08-04T08:56:03.649Z,8.27
2022-08-04T08:58:54.439Z,9.57
2022-08-04T09:01:31.632Z,8.10
2022-08-04T09:04:23.257Z,7.07
2022-08-04T09:07:32.265Z,8.02
2022-08-04T09:10:04.024Z,7.60
2022-08-04T09:12:59.778Z,7.50
2022-08-04T09:15:45.291Z,7.07
2022-08-04T09:18:34.293Z,6.55
2022-08-04T09:21:16.702Z,5.78
2022-08-04T09:24:03.796Z,7.50
2022-08-04T09:27:05.732Z,7.88
2022-08-04T09:29:43.356Z,9.15
2022-08-04T09:32:41.843Z,9.77
2022-08-04T09:35:47.598Z,9.13
2022-08-04T09:38:36.193Z,7.63
2022-08-04T09:41:48.401Z,6.40
2022-08-04T09:45:06.274Z,11.50
2022-08-04T09:47:40.641Z,10.40
2022-08-04T09:50:22.046Z,8.30
2022-08-04T09:53:02.932Z,13.23
2022-08-04T09:55:54.027Z,8.57
2022-08-04T09:58:48.457Z,11.00
2022-08-04T10:01:23.395Z,6.88
2022-08-04T10:04:00.405Z,9.85
2022-08-04T10:06:34.898Z,10.07
2022-08-04T10:09:24.547Z,10.52
2022-08-04T10:12:13.151Z,10.85
2022-08-04T10:15:13.785Z,6.70
2022-08-04T10:17:54.675Z,11.75
2022-08-04T10:20:36.619Z,8.05
2022-08-04T10:23:27.451Z,11.20
2022-08-04T10:26:11.103Z,10.93
2022-08-04T10:28:55.833Z,12.60
2022-08-04T10:31:33.092Z,7.13
2022-08-04T10:34:17.900Z,4.38
2022-08-04T10:36:56.813Z,5.07
2022-08-04T10:39:42.866Z,8.73
2022-08-04T10:42:27.595Z,6.20
2022-08-04T10:45:24.142Z,9.68
2022-08-04T10:48:02.326Z,6.60
2022-08-04T10:50:31.665Z,6.88
2022-08-04T10:53:07.795Z,6.05
2022-08-04T10:56:07.544Z,7.50
2022-08-04T10:58:48.493Z,3.53
2022-08-04T11:02:01.007Z,5.65
2022-08-04T11:04:48.610Z,12.25
2022-08-04T11:07:18.307Z,8.05
2022-08-04T11:09:47.668Z,7.88
2022-08-04T11:12:26.378Z,4.43
2022-08-04T11:15:13.556Z,7.10
2022-08-04T11:17:50.847Z,3.83
2022-08-04T11:20:53.079Z,3.78
2022-08-04T11:23:28.893Z,4.75
2022-08-04T11:26:14.039Z,15.73
2022-08-04T11:29:03.961Z,4.28
2022-08-04T11:31:36.884Z,14.27
2022-08-04T11:34:21.903Z,4.13
2022-08-04T11:37:14.132Z,5.53
2022-08-04T11:39:46.507Z,5.80
2022-08-04T11:42:31.123Z,10.07
2022-08-04T11:45:02.477Z,2.45
2022-08-04T11:48:04.012Z,4.30
2022-08-04T11:50:39.196Z,3.33
2022-08-04T11:53:11.069Z,4.07
2022-08-04T11:56:07.199Z,4.95
2022-08-04T11:58:30.562Z,4.13
2022-08-04T12:01:10.891Z,1.33
2022-08-04T12:07:28.847Z,1.92
2022-08-04T12:10:41.097Z,2.63
2022-08-04T12:13:42.274Z,2.90
2022-08-04T12:16:10.767Z,4.53
2022-08-04T12:18:41.668Z,5.47
2022-08-04T12:21:43.576Z,3.10
2022-08-04T12:24:22.500Z,4.38
2022-08-04T12:26:56.936Z,1.98
2022-08-04T12:29:34.375Z,4.82
2022-08-04T12:32:14.474Z,3.40
2022-08-04T12:35:10.814Z,3.42
2022-08-04T12:38:07.177Z,4.13
2022-08-04T12:40:45.011Z,5.30
2022-08-04T12:43:38.702Z,2.80
2022-08-04T12:46:10.180Z,1.65
2022-08-04T12:48:39.988Z,1.83
2022-08-04T12:51:30.957Z,6.90
2022-08-04T12:54:01.113Z,4.15
2022-08-04T12:59:04.311Z,1.58
2022-08-04T13:02:07.365Z,1.65
2022-08-04T13:04:29.423Z,2.35
2022-08-04T13:07:03.391Z,5.93
2022-08-04T13:09:34.221Z,4.43
2022-08-04T13:12:07.180Z,3.95
2022-08-04T13:14:38.271Z,2.55
2022-08-04T13:17:06.852Z,7.82
2022-08-04T13:19:41.445Z,3.47
2022-08-04T13:22:10.319Z,4.00
2022-08-04T13:25:17.846Z,2.47
2022-08-04T13:27:43.248Z,4.00
2022-08-04T13:30:18.580Z,2.78
2022-08-04T13:33:01.905Z,4.10
2022-08-04T13:35:55.610Z,1.35
2022-08-04T13:40:50.346Z,6.50
2022-08-04T13:44:16.645Z,2.58
2022-08-04T13:46:27.780Z,2.60
2022-08-04T13:49:25.944Z,2.28
2022-08-04T13:51:58.424Z,1.85
2022-08-04T13:54:42.617Z,2.75
2022-08-04T13:57:23.365Z,4.78
2022-08-04T14:02:29.704Z,2.20
2022-08-04T14:05:26.820Z,4.63
2022-08-04T14:08:18.224Z,3.42
2022-08-04T14:13:41.030Z,4.55
2022-08-04T14:16:19.680Z,3.45
2022-08-04T14:18:57.230Z,4.28
2022-08-04T14:21:26.821Z,4.13
2022-08-04T14:23:57.018Z,7.45
2022-08-04T14:26:33.825Z,9.27
2022-08-04T14:29:27.604Z,9.63
2022-08-04T14:32:10.446Z,11.15
2022-08-04T14:34:45.949Z,9.98
2022-08-04T14:37:20.320Z,10.57
2022-08-04T14:40:19.186Z,8.57
2022-08-04T14:42:55.556Z,20.70
2022-08-04T14:45:54.817Z,14.90
2022-08-04T14:48:23.452Z,11.10
2022-08-04T14:50:52.559Z,9.10
2022-08-04T14:53:26.392Z,10.23
2022-08-04T14:55:58.117Z,15.48
2022-08-04T14:58:39.368Z,10.75
2022-08-04T15:01:12.350Z,11.38
2022-08-04T15:03:49.650Z,8.02
2022-08-04T15:06:26.467Z,5.70
2022-08-04T15:09:00.220Z,7.22
2022-08-04T15:11:29.667Z,4.60
2022-08-04T15:13:59.946Z,5.82
2022-08-04T15:16:30.518Z,7.18
2022-08-04T15:19:01.157Z,9.70
2022-08-04T15:21:30.395Z,6.35
2022-08-04T15:23:59.622Z,5.70
2022-08-04T15:26:35.623Z,6.63
2022-08-04T15:29:16.402Z,8.38
2022-08-04T15:32:06.355Z,5.97
2022-08-04T15:34:52.667Z,6.97
2022-08-04T15:37:53.739Z,4.10
2022-08-04T15:40:33.616Z,7.40
2022-08-04T15:43:15.276Z,6.53
2022-08-04T15:46:37.057Z,6.97
2022-08-04T15:48:43.251Z,10.37
2022-08-04T15:51:15.034Z,8.07
2022-08-04T15:54:03.182Z,5.60
2022-08-04T15:56:32.474Z,5.97
2022-08-04T15:59:02.945Z,3.95
2022-08-04T16:01:32.162Z,4.88
2022-08-04T16:04:01.819Z,3.47
2022-08-04T16:06:41.416Z,4.25
2022-08-04T16:09:21.216Z,4.67
2022-08-04T16:11:52.935Z,4.28
2022-08-04T16:14:31.945Z,4.47
2022-08-04T16:17:15.153Z,3.97
2022-08-04T16:20:12.054Z,4.28
2022-08-04T16:22:41.030Z,4.20
2022-08-04T16:25:09.830Z,3.83
2022-08-04T16:27:41.259Z,3.42
2022-08-04T16:30:14.412Z,2.85
2022-08-04T16:32:48.830Z,4.53
2022-08-04T16:35:28.519Z,4.78
2022-08-04T16:38:14.744Z,4.03
2022-08-04T16:40:46.387Z,3.35
2022-08-04T16:43:20.885Z,2.40
2022-08-04T16:46:01.262Z,4.38
2022-08-04T16:48:31.831Z,3.63
2022-08-04T16:51:09.852Z,5.45
2022-08-04T16:53:53.858Z,3.88
2022-08-04T16:56:30.522Z,5.55
2022-08-04T16:59:08.260Z,7.18
2022-08-04T17:01:37.922Z,7.15
2022-08-04T17:04:07.026Z,1.95
2022-08-04T17:06:41.216Z,4.18
2022-08-04T17:09:18.909Z,1.95
2022-08-04T17:11:48.495Z,1.83
2022-08-04T17:14:28.927Z,3.35
2022-08-04T17:17:00.681Z,2.90
2022-08-04T17:19:29.033Z,1.70
2022-08-04T17:22:06.039Z,3.03
2022-08-04T17:24:38.312Z,3.53
2022-08-04T17:28:08.774Z,2.50
2022-08-04T17:29:55.791Z,5.13
2022-08-04T17:32:24.699Z,1.65
2022-08-04T17:34:55.519Z,4.47
2022-08-04T17:37:39.951Z,4.05
2022-08-04T17:40:16.097Z,3.53
2022-08-04T17:42:46.708Z,5.05
2022-08-04T17:45:53.846Z,3.90
2022-08-04T17:50:43.505Z,2.63
2022-08-04T17:53:13.145Z,3.97
2022-08-04T17:55:47.099Z,2.60
2022-08-04T17:58:22.114Z,3.30
2022-08-04T18:03:55.466Z,4.88
2022-08-04T18:06:25.597Z,3.72
2022-08-04T18:11:52.065Z,6.32
2022-08-04T18:14:28.697Z,3.22
2022-08-04T18:16:57.717Z,7.80
2022-08-04T18:19:26.074Z,4.55
2022-08-04T18:22:01.162Z,5.35
2022-08-04T18:24:35.147Z,5.78
2022-08-04T18:30:34.056Z,7.15
2022-08-04T18:33:04.421Z,5.63
2022-08-04T18:36:29.706Z,3.28
2022-08-04T18:38:22.852Z,7.78
2022-08-04T18:40:55.228Z,3.65
2022-08-04T18:43:28.048Z,3.50
2022-08-04T18:46:00.517Z,5.43
2022-08-04T18:48:36.723Z,5.38
2022-08-04T18:51:11.090Z,2.72
2022-08-04T18:53:55.385Z,7.97
2022-08-04T18:59:17.662Z,3.75
2022-08-04T19:02:12.343Z,6.07
2022-08-04T19:04:37.011Z,5.28
2022-08-04T19:09:57.989Z,5.57
2022-08-04T19:12:28.621Z,6.72
2022-08-04T19:15:08.489Z,4.43
2022-08-04T19:17:57.226Z,3.38
2022-08-04T19:20:29.474Z,6.60
2022-08-04T19:24:10.711Z,6.05
2022-08-04T19:26:01.261Z,7.43
2022-08-04T19:28:36.534Z,4.00
2022-08-04T19:31:07.665Z,6.97
2022-08-04T19:36:29.736Z,8.30
2022-08-04T19:39:09.260Z,9.73
2022-08-04T19:42:05.603Z,5.00
2022-08-04T19:44:29.971Z,5.53
2022-08-04T19:47:02.323Z,5.70
2022-08-04T19:50:04.538Z,5.10
2022-08-04T19:52:34.280Z,3.63
2022-08-04T19:55:10.851Z,7.32
2022-08-04T19:57:49.497Z,4.70
2022-08-04T20:00:33.391Z,6.93
2022-08-04T20:03:11.692Z,10.82
2022-08-04T20:05:55.011Z,5.03
2022-08-04T20:08:27.917Z,4.30
2022-08-04T20:10:57.972Z,9.55
2022-08-04T20:13:37.177Z,8.02
2022-08-04T20:16:28.378Z,7.25
2022-08-04T20:19:02.368Z,7.97
2022-08-04T20:21:54.282Z,7.35
2022-08-04T20:24:40.781Z,12.40
2022-08-04T20:27:16.121Z,7.78
2022-08-04T20:29:48.944Z,7.47
2022-08-04T20:32:22.087Z,5.65
2022-08-04T20:34:52.994Z,8.27
2022-08-04T20:40:03.583Z,6.82
2022-08-04T20:42:34.465Z,5.30
2022-08-04T20:45:05.994Z,11.23
2022-08-04T20:47:35.731Z,4.32
2022-08-04T20:50:08.754Z,3.47
2022-08-04T20:52:39.506Z,7.97
2022-08-04T20:55:08.901Z,9.50
2022-08-04T20:57:49.989Z,6.50
2022-08-04T21:00:26.527Z,9.05
2022-08-04T21:02:59.919Z,6.35
2022-08-04T21:05:31.651Z,6.60
2022-08-04T21:08:00.470Z,4.88
2022-08-04T21:13:01.906Z,4.25
2022-08-04T21:15:58.040Z,11.30
2022-08-04T21:18:29.272Z,9.20
2022-08-04T21:21:00.856Z,8.40
2022-08-04T21:23:29.255Z,7.68
2022-08-04T21:26:04.469Z,11.45
2022-08-04T21:28:33.341Z,8.95
2022-08-04T21:31:02.567Z,5.00
2022-08-04T21:33:50.878Z,6.78
2022-08-04T21:36:20.689Z,8.73
2022-08-04T21:38:51.213Z,7.60
2022-08-04T21:41:26.934Z,12.27
2022-08-04T21:43:56.063Z,9.85
2022-08-04T21:46:24.833Z,8.85
2022-08-04T21:48:53.205Z,6.40
2022-08-04T21:51:59.230Z,8.15
2022-08-04T21:54:15.117Z,9.23
2022-08-04T21:56:50.658Z,7.00
2022-08-04T21:59:23.807Z,12.02
2022-08-04T22:02:02.595Z,9.65
2022-08-04T22:04:31.887Z,7.07
2022-08-04T22:07:03.075Z,7.47
2022-08-04T22:09:41.053Z,8.88
2022-08-04T22:12:11.995Z,9.07
2022-08-04T22:14:41.269Z,13.93
2022-08-04T22:17:13.345Z,10.82
2022-08-04T22:19:54.937Z,8.23
2022-08-04T22:22:29.298Z,4.45
2022-08-04T22:25:06.274Z,7.38
2022-08-04T22:28:02.723Z,7.85
2022-08-04T22:30:37.456Z,7.20
2022-08-04T22:33:08.916Z,4.75
2022-08-04T22:35:49.036Z,7.95
2022-08-04T22:38:28.896Z,6.13
2022-08-04T22:41:12.834Z,5.63
2022-08-04T22:43:42.237Z,7.20
2022-08-04T22:46:20.674Z,7.15
2022-08-04T22:48:50.386Z,7.88
2022-08-04T22:51:20.928Z,6.05
2022-08-04T22:53:53.278Z,4.07
2022-08-04T22:56:37.185Z,6.00
2022-08-04T22:59:09.961Z,6.78
2022-08-04T23:01:59.820Z,5.43
2022-08-04T23:04:33.578Z,12.35
2022-08-04T23:07:09.176Z,7.32
2022-08-04T23:09:49.176Z,9.38
2022-08-04T23:12:25.795Z,7.88
2022-08-04T23:14:59.658Z,5.18
2022-08-04T23:17:28.816Z,5.68
2022-08-04T23:20:00.061Z,3.40
2022-08-04T23:22:41.481Z,6.45
2022-08-04T23:25:15.117Z,7.13
2022-08-04T23:27:50.564Z,8.70
2022-08-04T23:30:24.819Z,6.05
2022-08-04T23:33:00.022Z,5.95
2022-08-04T23:35:28.618Z,5.07
2022-08-04T23:38:00.092Z,6.72
2022-08-04T23:40:50.314Z,3.75
2022-08-04T23:43:19.576Z,5.15
2022-08-04T23:46:06.596Z,3.85
2022-08-04T23:48:37.098Z,5.45
2022-08-04T23:51:14.215Z,3.85
2022-08-04T23:54:01.758Z,4.03
2022-08-04T23:56:33.999Z,3.38
2022-08-04T23:59:04.606Z,8.25
